sensor_id;sensor_type;location;lat;lon;timestamp;temperature;humidity
17423;DHT22;8829;47.932;7.810;2023-06-10T00:01:44;18.20;99.90
17423;DHT22;8829;47.932;7.810;2023-06-10T00:04:12;18.10;99.90
17423;DHT22;8829;47.932;7.810;2023-06-10T00:06:39;18.00;99.90
17423;DHT22;8829;47.932;7.810;2023-06-10T00:09:06;18.10;99.90
17423;DHT22;8829;47.932;7.810;2023-06-10T00:11:35;18.00;99.90
17423;DHT22;8829;47.932;7.810;2023-06-10T00:14:02;17.90;99.90
17423;DHT22;8829;47.932;7.810;2023-06-10T00:16:29;17.90;99.90
17423;DHT22;8829;47.932;7.810;2023-06-10T00:18:59;18.00;99.90
17423;DHT22;8829;47.932;7.810;2023-06-10T00:21:26;18.00;99.90
17423;DHT22;8829;47.932;7.810;2023-06-10T00:23:53;17.90;99.90
17423;DHT22;8829;47.932;7.810;2023-06-10T00:26:21;17.90;99.90
17423;DHT22;8829;47.932;7.810;2023-06-10T00:28:47;17.90;99.90
17423;DHT22;8829;47.932;7.810;2023-06-10T00:31:14;17.90;99.90
17423;DHT22;8829;47.932;7.810;2023-06-10T00:33:41;17.90;99.90
17423;DHT22;8829;47.932;7.810;2023-06-10T00:36:09;18.00;99.90
17423;DHT22;8829;47.932;7.810;2023-06-10T00:38:35;18.00;99.90
17423;DHT22;8829;47.932;7.810;2023-06-10T00:41:02;18.00;99.90
17423;DHT22;8829;47.932;7.810;2023-06-10T00:43:29;18.00;99.90
17423;DHT22;8829;47.932;7.810;2023-06-10T00:45:56;18.00;99.90
17423;DHT22;8829;47.932;7.810;2023-06-10T00:48:22;17.90;99.90
17423;DHT22;8829;47.932;7.810;2023-06-10T00:50:50;17.90;99.90
17423;DHT22;8829;47.932;7.810;2023-06-10T00:53:18;17.90;99.90
17423;DHT22;8829;47.932;7.810;2023-06-10T00:55:46;17.80;99.90
17423;DHT22;8829;47.932;7.810;2023-06-10T00:58:13;17.70;99.90
17423;DHT22;8829;47.932;7.810;2023-06-10T01:00:40;17.50;99.90
17423;DHT22;8829;47.932;7.810;2023-06-10T01:03:06;17.40;99.90
17423;DHT22;8829;47.932;7.810;2023-06-10T01:05:34;17.40;99.90
17423;DHT22;8829;47.932;7.810;2023-06-10T01:08:06;17.40;99.90
17423;DHT22;8829;47.932;7.810;2023-06-10T01:10:38;17.30;99.90
17423;DHT22;8829;47.932;7.810;2023-06-10T01:13:10;17.40;99.90
17423;DHT22;8829;47.932;7.810;2023-06-10T01:15:38;17.20;99.90
17423;DHT22;8829;47.932;7.810;2023-06-10T01:18:06;17.30;99.90
17423;DHT22;8829;47.932;7.810;2023-06-10T01:20:35;17.40;99.90
17423;DHT22;8829;47.932;7.810;2023-06-10T01:23:07;17.40;99.90
17423;DHT22;8829;47.932;7.810;2023-06-10T01:25:36;17.30;99.90
17423;DHT22;8829;47.932;7.810;2023-06-10T01:28:07;17.30;99.90
17423;DHT22;8829;47.932;7.810;2023-06-10T01:30:39;17.30;99.90
17423;DHT22;8829;47.932;7.810;2023-06-10T01:33:09;17.20;99.90
17423;DHT22;8829;47.932;7.810;2023-06-10T01:35:37;17.20;99.90
17423;DHT22;8829;47.932;7.810;2023-06-10T01:38:07;17.70;99.90
17423;DHT22;8829;47.932;7.810;2023-06-10T01:40:34;17.20;99.90
17423;DHT22;8829;47.932;7.810;2023-06-10T01:43:01;17.10;99.90
17423;DHT22;8829;47.932;7.810;2023-06-10T01:45:28;17.00;99.90
17423;DHT22;8829;47.932;7.810;2023-06-10T01:47:55;17.00;99.90
17423;DHT22;8829;47.932;7.810;2023-06-10T01:50:21;17.00;99.90
17423;DHT22;8829;47.932;7.810;2023-06-10T01:52:48;16.90;99.90
17423;DHT22;8829;47.932;7.810;2023-06-10T01:55:16;17.00;99.90
17423;DHT22;8829;47.932;7.810;2023-06-10T01:57:43;17.00;99.90
17423;DHT22;8829;47.932;7.810;2023-06-10T02:00:11;17.10;99.90
17423;DHT22;8829;47.932;7.810;2023-06-10T02:02:38;17.10;99.90
17423;DHT22;8829;47.932;7.810;2023-06-10T02:05:05;17.00;99.90
17423;DHT22;8829;47.932;7.810;2023-06-10T02:07:32;16.80;99.90
17423;DHT22;8829;47.932;7.810;2023-06-10T02:09:59;16.60;99.90
17423;DHT22;8829;47.932;7.810;2023-06-10T02:12:27;16.50;99.90
17423;DHT22;8829;47.932;7.810;2023-06-10T02:14:53;16.30;99.90
17423;DHT22;8829;47.932;7.810;2023-06-10T02:17:20;16.40;99.90
17423;DHT22;8829;47.932;7.810;2023-06-10T02:19:48;16.50;99.90
17423;DHT22;8829;47.932;7.810;2023-06-10T02:22:19;16.50;99.90
17423;DHT22;8829;47.932;7.810;2023-06-10T02:24:45;16.60;99.90
17423;DHT22;8829;47.932;7.810;2023-06-10T02:27:12;16.60;99.90
17423;DHT22;8829;47.932;7.810;2023-06-10T02:29:40;16.60;99.90
17423;DHT22;8829;47.932;7.810;2023-06-10T02:32:08;16.50;99.90
17423;DHT22;8829;47.932;7.810;2023-06-10T02:34:35;16.50;99.90
17423;DHT22;8829;47.932;7.810;2023-06-10T02:37:03;16.40;99.90
17423;DHT22;8829;47.932;7.810;2023-06-10T02:39:30;16.30;99.90
17423;DHT22;8829;47.932;7.810;2023-06-10T02:41:56;16.30;99.90
17423;DHT22;8829;47.932;7.810;2023-06-10T02:44:23;16.50;99.90
17423;DHT22;8829;47.932;7.810;2023-06-10T02:46:51;16.50;99.90
17423;DHT22;8829;47.932;7.810;2023-06-10T02:49:18;16.50;99.90
17423;DHT22;8829;47.932;7.810;2023-06-10T02:51:44;16.50;99.90
17423;DHT22;8829;47.932;7.810;2023-06-10T02:54:11;16.20;99.90
17423;DHT22;8829;47.932;7.810;2023-06-10T02:56:38;16.10;99.90
17423;DHT22;8829;47.932;7.810;2023-06-10T02:59:07;16.20;99.90
17423;DHT22;8829;47.932;7.810;2023-06-10T03:01:33;16.20;99.90
17423;DHT22;8829;47.932;7.810;2023-06-10T03:04:03;16.30;99.90
17423;DHT22;8829;47.932;7.810;2023-06-10T03:06:30;16.30;99.90
17423;DHT22;8829;47.932;7.810;2023-06-10T03:08:58;16.30;99.90
17423;DHT22;8829;47.932;7.810;2023-06-10T03:11:25;16.20;99.90
17423;DHT22;8829;47.932;7.810;2023-06-10T03:13:52;16.20;99.90
17423;DHT22;8829;47.932;7.810;2023-06-10T03:16:20;16.20;99.90
17423;DHT22;8829;47.932;7.810;2023-06-10T03:18:48;16.10;99.90
17423;DHT22;8829;47.932;7.810;2023-06-10T03:21:16;15.80;99.90
17423;DHT22;8829;47.932;7.810;2023-06-10T03:23:43;15.80;99.90
17423;DHT22;8829;47.932;7.810;2023-06-10T03:26:10;15.80;99.90
17423;DHT22;8829;47.932;7.810;2023-06-10T03:28:37;15.90;99.90
17423;DHT22;8829;47.932;7.810;2023-06-10T03:31:04;16.00;99.90
17423;DHT22;8829;47.932;7.810;2023-06-10T03:33:31;16.10;99.90
17423;DHT22;8829;47.932;7.810;2023-06-10T03:35:57;16.10;99.90
17423;DHT22;8829;47.932;7.810;2023-06-10T03:38:26;16.00;99.90
17423;DHT22;8829;47.932;7.810;2023-06-10T03:40:52;16.00;99.90
17423;DHT22;8829;47.932;7.810;2023-06-10T03:43:19;16.00;99.90
17423;DHT22;8829;47.932;7.810;2023-06-10T03:45:47;15.90;99.90
17423;DHT22;8829;47.932;7.810;2023-06-10T03:48:14;15.90;99.90
17423;DHT22;8829;47.932;7.810;2023-06-10T03:50:42;16.00;99.90
17423;DHT22;8829;47.932;7.810;2023-06-10T03:53:08;16.10;99.90
17423;DHT22;8829;47.932;7.810;2023-06-10T03:55:36;16.10;99.90
17423;DHT22;8829;47.932;7.810;2023-06-10T03:58:03;16.10;99.90
17423;DHT22;8829;47.932;7.810;2023-06-10T04:00:30;15.90;99.90
17423;DHT22;8829;47.932;7.810;2023-06-10T04:03:06;15.60;99.90
17423;DHT22;8829;47.932;7.810;2023-06-10T04:05:34;15.60;99.90
17423;DHT22;8829;47.932;7.810;2023-06-10T04:08:01;15.70;99.90
17423;DHT22;8829;47.932;7.810;2023-06-10T04:10:28;15.80;99.90
17423;DHT22;8829;47.932;7.810;2023-06-10T04:12:56;15.80;99.90
17423;DHT22;8829;47.932;7.810;2023-06-10T04:15:22;15.90;99.90
17423;DHT22;8829;47.932;7.810;2023-06-10T04:17:49;15.90;99.90
17423;DHT22;8829;47.932;7.810;2023-06-10T04:20:16;15.90;99.90
17423;DHT22;8829;47.932;7.810;2023-06-10T04:22:42;15.80;99.90
17423;DHT22;8829;47.932;7.810;2023-06-10T04:25:09;15.90;99.90
17423;DHT22;8829;47.932;7.810;2023-06-10T04:27:36;16.00;99.90
17423;DHT22;8829;47.932;7.810;2023-06-10T04:30:05;16.00;99.90
17423;DHT22;8829;47.932;7.810;2023-06-10T04:32:32;16.10;99.90
17423;DHT22;8829;47.932;7.810;2023-06-10T04:34:59;16.10;99.90
17423;DHT22;8829;47.932;7.810;2023-06-10T04:37:26;16.10;99.90
17423;DHT22;8829;47.932;7.810;2023-06-10T04:39:54;16.20;99.90
17423;DHT22;8829;47.932;7.810;2023-06-10T04:42:22;16.20;99.90
17423;DHT22;8829;47.932;7.810;2023-06-10T04:44:48;16.20;99.90
17423;DHT22;8829;47.932;7.810;2023-06-10T04:47:16;16.20;99.90
17423;DHT22;8829;47.932;7.810;2023-06-10T04:49:43;16.30;99.90
17423;DHT22;8829;47.932;7.810;2023-06-10T04:52:10;16.40;99.90
17423;DHT22;8829;47.932;7.810;2023-06-10T04:54:36;16.40;99.90
17423;DHT22;8829;47.932;7.810;2023-06-10T04:57:04;16.40;99.90
17423;DHT22;8829;47.932;7.810;2023-06-10T04:59:31;16.50;99.90
17423;DHT22;8829;47.932;7.810;2023-06-10T05:01:58;16.50;99.90
17423;DHT22;8829;47.932;7.810;2023-06-10T05:04:26;16.60;99.90
17423;DHT22;8829;47.932;7.810;2023-06-10T05:06:52;16.60;99.90
17423;DHT22;8829;47.932;7.810;2023-06-10T05:09:19;16.60;99.90
17423;DHT22;8829;47.932;7.810;2023-06-10T05:11:46;16.60;99.90
17423;DHT22;8829;47.932;7.810;2023-06-10T05:14:13;16.70;99.90
17423;DHT22;8829;47.932;7.810;2023-06-10T05:16:41;17.10;99.90
17423;DHT22;8829;47.932;7.810;2023-06-10T05:19:08;17.00;99.90
17423;DHT22;8829;47.932;7.810;2023-06-10T05:21:36;17.50;99.90
17423;DHT22;8829;47.932;7.810;2023-06-10T05:24:03;18.00;99.90
17423;DHT22;8829;47.932;7.810;2023-06-10T05:26:30;18.20;99.90
17423;DHT22;8829;47.932;7.810;2023-06-10T05:28:58;18.40;99.90
17423;DHT22;8829;47.932;7.810;2023-06-10T05:31:25;19.30;99.90
17423;DHT22;8829;47.932;7.810;2023-06-10T05:33:51;19.30;99.90
17423;DHT22;8829;47.932;7.810;2023-06-10T05:36:18;19.50;99.90
17423;DHT22;8829;47.932;7.810;2023-06-10T05:38:46;19.70;99.90
17423;DHT22;8829;47.932;7.810;2023-06-10T05:41:13;19.90;99.90
17423;DHT22;8829;47.932;7.810;2023-06-10T05:43:39;20.30;99.90
17423;DHT22;8829;47.932;7.810;2023-06-10T05:46:06;20.50;99.90
17423;DHT22;8829;47.932;7.810;2023-06-10T05:48:33;20.50;99.90
17423;DHT22;8829;47.932;7.810;2023-06-10T05:50:59;20.80;99.90
17423;DHT22;8829;47.932;7.810;2023-06-10T05:53:26;20.70;99.90
17423;DHT22;8829;47.932;7.810;2023-06-10T05:55:55;20.30;99.90
17423;DHT22;8829;47.932;7.810;2023-06-10T05:58:23;20.20;99.90
17423;DHT22;8829;47.932;7.810;2023-06-10T06:00:49;20.40;99.90
17423;DHT22;8829;47.932;7.810;2023-06-10T06:03:17;20.10;99.90
17423;DHT22;8829;47.932;7.810;2023-06-10T06:05:44;20.40;99.90
17423;DHT22;8829;47.932;7.810;2023-06-10T06:08:11;20.40;99.90
17423;DHT22;8829;47.932;7.810;2023-06-10T06:10:39;20.40;99.90
17423;DHT22;8829;47.932;7.810;2023-06-10T06:13:07;20.60;99.90
17423;DHT22;8829;47.932;7.810;2023-06-10T06:15:33;21.00;99.90
17423;DHT22;8829;47.932;7.810;2023-06-10T06:18:00;20.70;99.90
17423;DHT22;8829;47.932;7.810;2023-06-10T06:20:27;20.90;99.90
17423;DHT22;8829;47.932;7.810;2023-06-10T06:22:54;20.80;99.90
17423;DHT22;8829;47.932;7.810;2023-06-10T06:25:20;21.50;99.90
17423;DHT22;8829;47.932;7.810;2023-06-10T06:27:47;22.10;99.90
17423;DHT22;8829;47.932;7.810;2023-06-10T06:30:15;21.70;99.90
17423;DHT22;8829;47.932;7.810;2023-06-10T06:32:42;21.90;99.90
17423;DHT22;8829;47.932;7.810;2023-06-10T06:35:08;22.20;99.90
17423;DHT22;8829;47.932;7.810;2023-06-10T06:37:35;22.60;99.90
17423;DHT22;8829;47.932;7.810;2023-06-10T06:40:03;22.00;99.90
17423;DHT22;8829;47.932;7.810;2023-06-10T06:42:30;22.30;99.90
17423;DHT22;8829;47.932;7.810;2023-06-10T06:44:57;22.70;99.90
17423;DHT22;8829;47.932;7.810;2023-06-10T06:47:25;22.00;99.90
17423;DHT22;8829;47.932;7.810;2023-06-10T06:49:52;22.10;99.90
17423;DHT22;8829;47.932;7.810;2023-06-10T06:52:19;22.20;99.90
17423;DHT22;8829;47.932;7.810;2023-06-10T06:54:45;22.40;99.90
17423;DHT22;8829;47.932;7.810;2023-06-10T06:57:12;22.30;99.90
17423;DHT22;8829;47.932;7.810;2023-06-10T06:59:39;22.80;99.90
17423;DHT22;8829;47.932;7.810;2023-06-10T07:02:06;22.90;99.90
17423;DHT22;8829;47.932;7.810;2023-06-10T07:04:34;23.00;99.90
17423;DHT22;8829;47.932;7.810;2023-06-10T07:07:01;23.60;99.90
17423;DHT22;8829;47.932;7.810;2023-06-10T07:09:27;24.10;99.90
17423;DHT22;8829;47.932;7.810;2023-06-10T07:11:54;23.80;99.90
17423;DHT22;8829;47.932;7.810;2023-06-10T07:14:21;23.00;99.90
17423;DHT22;8829;47.932;7.810;2023-06-10T07:16:47;23.10;99.90
17423;DHT22;8829;47.932;7.810;2023-06-10T07:19:15;22.50;99.90
17423;DHT22;8829;47.932;7.810;2023-06-10T07:21:43;22.80;99.90
17423;DHT22;8829;47.932;7.810;2023-06-10T07:24:09;23.30;99.90
17423;DHT22;8829;47.932;7.810;2023-06-10T07:26:36;23.60;99.90
17423;DHT22;8829;47.932;7.810;2023-06-10T07:29:03;24.50;99.90
17423;DHT22;8829;47.932;7.810;2023-06-10T07:31:29;25.40;99.90
17423;DHT22;8829;47.932;7.810;2023-06-10T07:33:56;25.20;99.90
17423;DHT22;8829;47.932;7.810;2023-06-10T07:36:23;24.30;99.90
17423;DHT22;8829;47.932;7.810;2023-06-10T07:38:54;24.40;99.90
17423;DHT22;8829;47.932;7.810;2023-06-10T07:41:22;23.70;99.90
17423;DHT22;8829;47.932;7.810;2023-06-10T07:43:50;24.20;99.90
17423;DHT22;8829;47.932;7.810;2023-06-10T07:46:19;24.10;99.90
17423;DHT22;8829;47.932;7.810;2023-06-10T07:48:46;25.30;99.90
17423;DHT22;8829;47.932;7.810;2023-06-10T07:51:13;26.30;99.90
17423;DHT22;8829;47.932;7.810;2023-06-10T07:53:39;27.20;99.90
17423;DHT22;8829;47.932;7.810;2023-06-10T07:56:07;27.70;99.90
17423;DHT22;8829;47.932;7.810;2023-06-10T07:58:34;28.30;98.90
17423;DHT22;8829;47.932;7.810;2023-06-10T08:01:01;28.00;98.60
17423;DHT22;8829;47.932;7.810;2023-06-10T08:03:27;28.60;97.80
17423;DHT22;8829;47.932;7.810;2023-06-10T08:05:54;28.90;97.10
17423;DHT22;8829;47.932;7.810;2023-06-10T08:08:21;29.10;97.10
17423;DHT22;8829;47.932;7.810;2023-06-10T08:10:47;29.50;96.50
17423;DHT22;8829;47.932;7.810;2023-06-10T08:13:16;29.50;96.30
17423;DHT22;8829;47.932;7.810;2023-06-10T08:15:42;30.10;96.40
17423;DHT22;8829;47.932;7.810;2023-06-10T08:18:09;30.70;95.10
17423;DHT22;8829;47.932;7.810;2023-06-10T08:20:36;31.10;94.60
17423;DHT22;8829;47.932;7.810;2023-06-10T08:23:02;31.10;94.00
17423;DHT22;8829;47.932;7.810;2023-06-10T08:25:29;31.40;93.70
17423;DHT22;8829;47.932;7.810;2023-06-10T08:27:55;31.50;93.30
17423;DHT22;8829;47.932;7.810;2023-06-10T08:30:24;31.30;93.40
17423;DHT22;8829;47.932;7.810;2023-06-10T08:32:50;31.20;93.30
17423;DHT22;8829;47.932;7.810;2023-06-10T08:35:18;31.30;93.20
17423;DHT22;8829;47.932;7.810;2023-06-10T08:37:44;31.70;93.00
17423;DHT22;8829;47.932;7.810;2023-06-10T08:40:12;32.10;92.80
17423;DHT22;8829;47.932;7.810;2023-06-10T08:42:41;32.20;92.50
17423;DHT22;8829;47.932;7.810;2023-06-10T08:45:15;32.30;92.20
17423;DHT22;8829;47.932;7.810;2023-06-10T08:47:45;32.30;91.90
17423;DHT22;8829;47.932;7.810;2023-06-10T08:50:12;32.30;92.00
17423;DHT22;8829;47.932;7.810;2023-06-10T08:52:43;32.20;91.70
17423;DHT22;8829;47.932;7.810;2023-06-10T08:55:12;32.00;91.70
17423;DHT22;8829;47.932;7.810;2023-06-10T08:57:40;31.70;92.10
17423;DHT22;8829;47.932;7.810;2023-06-10T09:00:08;31.60;92.40
17423;DHT22;8829;47.932;7.810;2023-06-10T09:02:36;31.60;92.50
17423;DHT22;8829;47.932;7.810;2023-06-10T09:05:05;31.10;92.50
17423;DHT22;8829;47.932;7.810;2023-06-10T09:07:32;30.70;92.60
17423;DHT22;8829;47.932;7.810;2023-06-10T09:10:01;30.00;93.40
17423;DHT22;8829;47.932;7.810;2023-06-10T09:12:30;29.80;93.20
17423;DHT22;8829;47.932;7.810;2023-06-10T09:14:57;29.60;93.60
17423;DHT22;8829;47.932;7.810;2023-06-10T09:17:23;29.30;94.20
17423;DHT22;8829;47.932;7.810;2023-06-10T09:19:50;29.20;94.30
17423;DHT22;8829;47.932;7.810;2023-06-10T09:22:21;28.80;95.40
17423;DHT22;8829;47.932;7.810;2023-06-10T09:24:48;28.60;95.60
17423;DHT22;8829;47.932;7.810;2023-06-10T09:27:14;28.70;95.90
17423;DHT22;8829;47.932;7.810;2023-06-10T09:29:48;28.60;95.40
17423;DHT22;8829;47.932;7.810;2023-06-10T09:32:18;28.40;96.00
17423;DHT22;8829;47.932;7.810;2023-06-10T09:34:45;28.30;95.70
17423;DHT22;8829;47.932;7.810;2023-06-10T09:37:12;28.00;96.20
17423;DHT22;8829;47.932;7.810;2023-06-10T09:39:40;27.50;96.40
17423;DHT22;8829;47.932;7.810;2023-06-10T09:42:16;27.30;97.50
17423;DHT22;8829;47.932;7.810;2023-06-10T09:44:49;27.40;97.50
17423;DHT22;8829;47.932;7.810;2023-06-10T09:47:20;27.40;97.40
17423;DHT22;8829;47.932;7.810;2023-06-10T09:49:47;27.30;97.70
17423;DHT22;8829;47.932;7.810;2023-06-10T09:52:21;27.30;97.40
17423;DHT22;8829;47.932;7.810;2023-06-10T09:54:50;27.40;97.20
17423;DHT22;8829;47.932;7.810;2023-06-10T09:57:17;27.50;98.00
17423;DHT22;8829;47.932;7.810;2023-06-10T09:59:45;27.50;97.40
17423;DHT22;8829;47.932;7.810;2023-06-10T10:02:14;27.50;97.40
17423;DHT22;8829;47.932;7.810;2023-06-10T10:04:41;27.50;97.20
17423;DHT22;8829;47.932;7.810;2023-06-10T10:07:07;27.50;96.90
17423;DHT22;8829;47.932;7.810;2023-06-10T10:09:35;27.20;96.70
17423;DHT22;8829;47.932;7.810;2023-06-10T10:12:05;27.00;97.20
17423;DHT22;8829;47.932;7.810;2023-06-10T10:14:36;27.00;97.50
17423;DHT22;8829;47.932;7.810;2023-06-10T10:17:05;26.90;97.70
17423;DHT22;8829;47.932;7.810;2023-06-10T10:19:36;26.90;98.60
17423;DHT22;8829;47.932;7.810;2023-06-10T10:22:08;26.80;98.20
17423;DHT22;8829;47.932;7.810;2023-06-10T10:24:40;26.70;98.80
17423;DHT22;8829;47.932;7.810;2023-06-10T10:27:16;26.80;99.50
17423;DHT22;8829;47.932;7.810;2023-06-10T10:29:45;27.00;98.50
17423;DHT22;8829;47.932;7.810;2023-06-10T10:32:14;27.20;98.30
17423;DHT22;8829;47.932;7.810;2023-06-10T10:34:51;27.20;97.20
17423;DHT22;8829;47.932;7.810;2023-06-10T10:37:20;27.20;96.80
17423;DHT22;8829;47.932;7.810;2023-06-10T10:39:47;26.10;97.60
17423;DHT22;8829;47.932;7.810;2023-06-10T10:42:16;25.80;99.10
17423;DHT22;8829;47.932;7.810;2023-06-10T10:44:44;26.10;99.10
17423;DHT22;8829;47.932;7.810;2023-06-10T10:47:11;26.50;97.60
17423;DHT22;8829;47.932;7.810;2023-06-10T10:49:43;26.40;98.50
17423;DHT22;8829;47.932;7.810;2023-06-10T10:52:11;26.70;98.30
17423;DHT22;8829;47.932;7.810;2023-06-10T10:54:43;26.90;97.80
17423;DHT22;8829;47.932;7.810;2023-06-10T10:57:11;27.00;97.60
17423;DHT22;8829;47.932;7.810;2023-06-10T10:59:58;26.60;97.70
17423;DHT22;8829;47.932;7.810;2023-06-10T11:02:36;26.20;98.00
17423;DHT22;8829;47.932;7.810;2023-06-10T11:05:05;25.80;97.80
17423;DHT22;8829;47.932;7.810;2023-06-10T11:07:32;26.00;98.60
17423;DHT22;8829;47.932;7.810;2023-06-10T11:10:00;26.40;98.20
17423;DHT22;8829;47.932;7.810;2023-06-10T11:12:52;26.80;98.20
17423;DHT22;8829;47.932;7.810;2023-06-10T11:15:23;27.20;97.90
17423;DHT22;8829;47.932;7.810;2023-06-10T11:18:13;27.30;97.70
17423;DHT22;8829;47.932;7.810;2023-06-10T11:20:54;27.50;97.70
17423;DHT22;8829;47.932;7.810;2023-06-10T11:23:40;27.40;97.40
17423;DHT22;8829;47.932;7.810;2023-06-10T11:26:18;27.40;97.40
17423;DHT22;8829;47.932;7.810;2023-06-10T11:31:44;27.90;96.50
17423;DHT22;8829;47.932;7.810;2023-06-10T11:34:12;28.00;96.20
17423;DHT22;8829;47.932;7.810;2023-06-10T11:36:40;28.00;96.20
17423;DHT22;8829;47.932;7.810;2023-06-10T11:39:09;28.30;95.70
17423;DHT22;8829;47.932;7.810;2023-06-10T11:41:37;27.90;95.60
17423;DHT22;8829;47.932;7.810;2023-06-10T11:44:08;27.20;95.70
17423;DHT22;8829;47.932;7.810;2023-06-10T11:46:35;26.40;96.50
17423;DHT22;8829;47.932;7.810;2023-06-10T11:49:04;26.70;96.50
17423;DHT22;8829;47.932;7.810;2023-06-10T11:51:33;26.60;96.80
17423;DHT22;8829;47.932;7.810;2023-06-10T11:54:01;26.60;97.40
17423;DHT22;8829;47.932;7.810;2023-06-10T11:56:29;27.00;96.90
17423;DHT22;8829;47.932;7.810;2023-06-10T11:58:58;27.10;96.20
17423;DHT22;8829;47.932;7.810;2023-06-10T12:01:29;27.10;96.10
17423;DHT22;8829;47.932;7.810;2023-06-10T12:03:58;26.60;97.00
17423;DHT22;8829;47.932;7.810;2023-06-10T12:06:26;26.60;96.70
17423;DHT22;8829;47.932;7.810;2023-06-10T12:08:53;26.30;96.60
17423;DHT22;8829;47.932;7.810;2023-06-10T12:11:20;26.00;97.20
17423;DHT22;8829;47.932;7.810;2023-06-10T12:13:49;26.10;97.10
17423;DHT22;8829;47.932;7.810;2023-06-10T12:16:16;26.00;97.00
17423;DHT22;8829;47.932;7.810;2023-06-10T12:18:44;26.00;97.20
17423;DHT22;8829;47.932;7.810;2023-06-10T12:21:18;26.50;97.20
17423;DHT22;8829;47.932;7.810;2023-06-10T12:24:03;27.00;96.20
17423;DHT22;8829;47.932;7.810;2023-06-10T12:26:38;27.50;96.30
17423;DHT22;8829;47.932;7.810;2023-06-10T12:29:19;27.90;96.70
17423;DHT22;8829;47.932;7.810;2023-06-10T12:31:58;28.20;96.20
17423;DHT22;8829;47.932;7.810;2023-06-10T12:34:30;28.50;95.10
17423;DHT22;8829;47.932;7.810;2023-06-10T12:36:56;28.50;93.70
17423;DHT22;8829;47.932;7.810;2023-06-10T12:39:25;28.40;94.70
17423;DHT22;8829;47.932;7.810;2023-06-10T12:41:51;28.00;94.20
17423;DHT22;8829;47.932;7.810;2023-06-10T12:44:19;27.90;94.50
17423;DHT22;8829;47.932;7.810;2023-06-10T12:46:54;27.90;95.00
17423;DHT22;8829;47.932;7.810;2023-06-10T12:49:21;27.80;94.40
17423;DHT22;8829;47.932;7.810;2023-06-10T12:51:47;28.00;94.20
17423;DHT22;8829;47.932;7.810;2023-06-10T12:54:14;27.80;94.60
17423;DHT22;8829;47.932;7.810;2023-06-10T12:56:42;27.70;94.40
17423;DHT22;8829;47.932;7.810;2023-06-10T12:59:09;27.60;94.40
17423;DHT22;8829;47.932;7.810;2023-06-10T13:01:37;27.40;95.20
17423;DHT22;8829;47.932;7.810;2023-06-10T13:04:04;27.00;96.70
17423;DHT22;8829;47.932;7.810;2023-06-10T13:06:32;26.30;98.60
17423;DHT22;8829;47.932;7.810;2023-06-10T13:09:02;26.10;99.80
17423;DHT22;8829;47.932;7.810;2023-06-10T13:11:28;25.80;99.90
17423;DHT22;8829;47.932;7.810;2023-06-10T13:13:56;25.70;99.90
17423;DHT22;8829;47.932;7.810;2023-06-10T13:16:23;25.50;99.90
17423;DHT22;8829;47.932;7.810;2023-06-10T13:18:52;25.30;99.90
17423;DHT22;8829;47.932;7.810;2023-06-10T13:21:18;25.50;99.90
17423;DHT22;8829;47.932;7.810;2023-06-10T13:23:47;25.40;99.90
17423;DHT22;8829;47.932;7.810;2023-06-10T13:26:14;25.20;99.00
17423;DHT22;8829;47.932;7.810;2023-06-10T13:28:41;25.40;99.50
17423;DHT22;8829;47.932;7.810;2023-06-10T13:31:10;25.70;99.90
17423;DHT22;8829;47.932;7.810;2023-06-10T13:33:36;26.10;99.90
17423;DHT22;8829;47.932;7.810;2023-06-10T13:36:04;26.30;99.80
17423;DHT22;8829;47.932;7.810;2023-06-10T13:38:30;26.30;99.30
17423;DHT22;8829;47.932;7.810;2023-06-10T13:40:57;26.60;97.40
17423;DHT22;8829;47.932;7.810;2023-06-10T13:43:25;26.90;97.40
17423;DHT22;8829;47.932;7.810;2023-06-10T13:45:52;27.20;96.60
17423;DHT22;8829;47.932;7.810;2023-06-10T13:48:20;27.30;95.60
17423;DHT22;8829;47.932;7.810;2023-06-10T13:50:47;27.20;95.70
17423;DHT22;8829;47.932;7.810;2023-06-10T13:53:13;27.30;96.20
17423;DHT22;8829;47.932;7.810;2023-06-10T13:55:40;27.10;95.40
17423;DHT22;8829;47.932;7.810;2023-06-10T13:58:07;26.80;95.90
17423;DHT22;8829;47.932;7.810;2023-06-10T14:00:33;26.90;97.30
17423;DHT22;8829;47.932;7.810;2023-06-10T14:03:00;26.90;95.80
17423;DHT22;8829;47.932;7.810;2023-06-10T14:05:29;26.90;95.60
17423;DHT22;8829;47.932;7.810;2023-06-10T14:07:57;26.80;96.00
17423;DHT22;8829;47.932;7.810;2023-06-10T14:10:23;26.80;96.10
17423;DHT22;8829;47.932;7.810;2023-06-10T14:12:50;26.70;96.90
17423;DHT22;8829;47.932;7.810;2023-06-10T14:15:17;26.60;96.90
17423;DHT22;8829;47.932;7.810;2023-06-10T14:17:43;26.70;97.20
17423;DHT22;8829;47.932;7.810;2023-06-10T14:20:12;26.90;96.70
17423;DHT22;8829;47.932;7.810;2023-06-10T14:22:40;26.80;96.90
17423;DHT22;8829;47.932;7.810;2023-06-10T14:25:07;26.90;96.90
17423;DHT22;8829;47.932;7.810;2023-06-10T14:27:34;27.10;95.60
17423;DHT22;8829;47.932;7.810;2023-06-10T14:30:01;27.50;94.90
17423;DHT22;8829;47.932;7.810;2023-06-10T14:32:28;27.80;93.90
17423;DHT22;8829;47.932;7.810;2023-06-10T14:34:55;28.00;93.80
17423;DHT22;8829;47.932;7.810;2023-06-10T14:37:21;28.10;94.10
17423;DHT22;8829;47.932;7.810;2023-06-10T14:39:49;28.20;93.30
17423;DHT22;8829;47.932;7.810;2023-06-10T14:42:16;28.40;93.90
17423;DHT22;8829;47.932;7.810;2023-06-10T14:44:42;28.20;92.90
17423;DHT22;8829;47.932;7.810;2023-06-10T14:47:09;28.00;93.20
17423;DHT22;8829;47.932;7.810;2023-06-10T14:49:36;27.90;93.10
17423;DHT22;8829;47.932;7.810;2023-06-10T14:52:03;27.90;93.80
17423;DHT22;8829;47.932;7.810;2023-06-10T14:54:29;28.10;94.10
17423;DHT22;8829;47.932;7.810;2023-06-10T14:56:57;28.10;93.00
17423;DHT22;8829;47.932;7.810;2023-06-10T14:59:24;28.10;93.60
17423;DHT22;8829;47.932;7.810;2023-06-10T15:01:50;28.10;94.20
17423;DHT22;8829;47.932;7.810;2023-06-10T15:04:17;28.30;93.00
17423;DHT22;8829;47.932;7.810;2023-06-10T15:06:44;28.30;92.80
17423;DHT22;8829;47.932;7.810;2023-06-10T15:09:10;28.00;92.00
17423;DHT22;8829;47.932;7.810;2023-06-10T15:11:37;27.70;93.00
17423;DHT22;8829;47.932;7.810;2023-06-10T15:14:05;27.70;93.60
17423;DHT22;8829;47.932;7.810;2023-06-10T15:16:32;27.90;93.40
17423;DHT22;8829;47.932;7.810;2023-06-10T15:18:59;28.10;93.50
17423;DHT22;8829;47.932;7.810;2023-06-10T15:21:25;28.20;93.10
17423;DHT22;8829;47.932;7.810;2023-06-10T15:23:52;28.20;92.40
17423;DHT22;8829;47.932;7.810;2023-06-10T15:26:19;27.90;93.30
17423;DHT22;8829;47.932;7.810;2023-06-10T15:28:46;27.90;93.50
17423;DHT22;8829;47.932;7.810;2023-06-10T15:31:14;28.00;92.80
17423;DHT22;8829;47.932;7.810;2023-06-10T15:33:40;27.90;92.50
17423;DHT22;8829;47.932;7.810;2023-06-10T15:36:07;28.00;92.80
17423;DHT22;8829;47.932;7.810;2023-06-10T15:38:34;28.20;92.10
17423;DHT22;8829;47.932;7.810;2023-06-10T15:41:00;28.20;91.70
17423;DHT22;8829;47.932;7.810;2023-06-10T15:43:27;28.30;91.60
17423;DHT22;8829;47.932;7.810;2023-06-10T15:45:54;28.40;91.50
17423;DHT22;8829;47.932;7.810;2023-06-10T15:48:22;28.60;91.40
17423;DHT22;8829;47.932;7.810;2023-06-10T15:50:49;28.70;91.10
17423;DHT22;8829;47.932;7.810;2023-06-10T15:53:16;28.70;90.70